Terminal Aerodrome Forecast
Issued by NWS Cleveland, OH

Home | Current Version | Previous Version | Text Only | Print | Product List | Glossary Off
Versions: 1 2 3 4 5 6 7 8 9 10 11 12 13 14 15

000
FTUS41 KCLE 282332
TAFCAK
TAF
KCAK 282332Z 2900/2924 23005KT P6SM SCT050 BKN120
     FM290900 VRB03KT 5SM BR SCT250
     FM291200 21006KT P6SM VCSH BKN060 BKN120
     FM292000 20010KT P6SM BKN050 BKN120=

USA.gov is the U.S. government's official web portal to all federal, state and local government web resources and services.